Time;durP1;ratioP1;P1;durP2;ratioP2;P2;SDS_P1;SDS_P2;PMS_P1;PMS_P2;Temp;Humidity;BMP_temperature;BMP_pressure;BME280_temperature;BME280_humidity;BME280_pressure;Samples;Min_cycle;Max_cycle;Signal;HPM_P1;HPM_P2
2021/05/16 00:00:32;;;;;;;7.45;1.67;;;18.40;51.20;;;;;;5071564;28;20033;-52
2021/05/16 00:02:59;;;;;;;7.47;1.30;;;18.40;50.60;;;;;;5071459;28;20108;-55
2021/05/16 00:05:28;;;;;;;4.90;2.60;;;18.50;49.90;;;;;;5071876;28;20070;-54
2021/05/16 00:07:56;;;;;;;9.70;1.60;;;18.60;49.60;;;;;;5071911;28;20086;-49
2021/05/16 00:10:26;;;;;;;4.35;1.20;;;18.70;50.40;;;;;;5071408;28;20052;-58
2021/05/16 00:12:55;;;;;;;7.25;1.58;;;18.80;50.50;;;;;;5071154;28;20064;-53
2021/05/16 00:15:25;;;;;;;7.00;1.40;;;18.90;50.40;;;;;;5071833;28;20075;-56
2021/05/16 00:17:52;;;;;;;5.68;1.45;;;19.00;49.20;;;;;;5072474;28;20068;-56
2021/05/16 00:20:23;;;;;;;10.13;1.85;;;19.10;50.90;;;;;;5078112;28;20051;-55
2021/05/16 00:22:50;;;;;;;4.18;1.40;;;19.20;49.40;;;;;;5078032;28;20052;-49
2021/05/16 00:25:19;;;;;;;7.90;1.80;;;19.30;47.90;;;;;;5077044;28;20375;-54
2021/05/16 00:27:48;;;;;;;7.88;1.52;;;19.40;48.40;;;;;;5077753;28;20505;-57
2021/05/16 00:30:17;;;;;;;4.38;1.35;;;19.50;48.20;;;;;;5078361;28;20386;-55
2021/05/16 00:32:45;;;;;;;5.80;1.30;;;19.70;50.20;;;;;;5078051;28;20501;-58
2021/05/16 00:35:16;;;;;;;5.10;1.30;;;19.80;49.30;;;;;;5077902;28;20400;-52
2021/05/16 00:37:43;;;;;;;7.68;1.08;;;20.00;48.90;;;;;;5078114;28;20383;-56
2021/05/16 00:40:12;;;;;;;5.80;1.85;;;20.00;47.70;;;;;;5077919;28;20024;-59
2021/05/16 00:42:39;;;;;;;3.10;1.33;;;20.00;47.90;;;;;;5077865;28;20139;-54
2021/05/16 00:45:08;;;;;;;3.40;1.08;;;20.10;48.70;;;;;;5078079;28;20078;-56
2021/05/16 00:47:38;;;;;;;2.97;1.13;;;20.30;48.00;;;;;;5077709;28;20024;-59
2021/05/16 00:50:09;;;;;;;6.68;1.60;;;20.40;49.30;;;;;;5077949;28;20309;-54
2021/05/16 00:52:39;;;;;;;5.05;1.63;;;20.40;46.70;;;;;;5077796;28;20024;-56
2021/05/16 00:55:08;;;;;;;2.90;0.85;;;20.60;46.90;;;;;;5077608;28;20071;-60
2021/05/16 00:57:35;;;;;;;4.50;0.88;;;20.70;46.20;;;;;;5077305;28;20040;-57
2021/05/16 01:00:06;;;;;;;2.80;1.15;;;20.70;45.60;;;;;;5076434;28;20021;-58
2021/05/16 01:02:33;;;;;;;1.92;0.95;;;20.80;48.10;;;;;;5077495;28;20038;-53
2021/05/16 01:05:01;;;;;;;6.72;1.30;;;20.80;46.80;;;;;;5077488;28;20048;-56
2021/05/16 01:07:29;;;;;;;5.68;1.30;;;20.90;45.30;;;;;;5077558;28;20095;-57
2021/05/16 01:09:56;;;;;;;7.85;1.73;;;20.90;47.10;;;;;;5075846;28;20031;-55
2021/05/16 01:12:30;;;;;;;3.85;1.23;;;21.00;45.80;;;;;;5075337;28;20036;-52
2021/05/16 01:15:02;;;;;;;5.00;1.40;;;21.10;47.20;;;;;;5077630;28;20436;-54
2021/05/16 01:17:32;;;;;;;2.88;1.08;;;21.20;46.40;;;;;;5076610;28;20308;-57
2021/05/16 01:19:59;;;;;;;5.97;1.13;;;21.30;46.20;;;;;;5077528;28;20028;-53
2021/05/16 01:22:27;;;;;;;4.15;1.20;;;21.40;47.60;;;;;;5066478;28;20033;-51
2021/05/16 01:24:54;;;;;;;3.85;1.10;;;21.40;44.40;;;;;;5075871;28;20386;-52
2021/05/16 01:27:21;;;;;;;2.97;1.30;;;21.60;46.10;;;;;;5077195;28;20414;-51
2021/05/16 01:29:49;;;;;;;4.90;1.42;;;21.70;46.50;;;;;;5074961;28;20446;-52
2021/05/16 01:32:20;;;;;;;9.93;1.70;;;21.60;44.30;;;;;;5073938;28;20101;-51
2021/05/16 01:34:49;;;;;;;3.45;1.20;;;21.80;45.60;;;;;;5074042;28;20427;-52
2021/05/16 01:37:17;;;;;;;1.48;0.70;;;21.90;45.70;;;;;;5072828;28;20036;-52
2021/05/16 01:39:47;;;;;;;5.30;1.10;;;21.90;46.60;;;;;;5065714;28;20027;-46
2021/05/16 01:42:17;;;;;;;1.90;0.80;;;21.90;44.50;;;;;;5072652;28;20024;-50
2021/05/16 01:44:45;;;;;;;2.55;1.05;;;22.00;45.70;;;;;;5071398;28;20036;-51
2021/05/16 01:47:12;;;;;;;4.38;1.10;;;22.10;43.60;;;;;;5072824;28;20036;-46
2021/05/16 01:49:50;;;;;;;2.35;0.90;;;22.10;45.60;;;;;;5070913;28;20034;-48
2021/05/16 01:52:17;;;;;;;4.72;1.00;;;22.10;47.30;;;;;;5068162;28;20415;-48
2021/05/16 01:54:46;;;;;;;4.60;1.10;;;22.20;44.60;;;;;;5071700;28;20021;-48
2021/05/16 01:57:14;;;;;;;5.93;1.05;;;22.20;46.80;;;;;;5067552;28;20040;-52
2021/05/16 01:59:42;;;;;;;5.57;1.08;;;22.30;44.20;;;;;;5070572;28;20161;-46
2021/05/16 02:02:10;;;;;;;1.60;0.90;;;22.40;44.70;;;;;;5071704;28;20037;-52
2021/05/16 02:04:39;;;;;;;3.38;0.77;;;22.40;46.10;;;;;;5069347;28;20040;-51
2021/05/16 02:07:06;;;;;;;2.70;0.95;;;22.40;44.40;;;;;;5068152;28;20092;-50
2021/05/16 02:09:36;;;;;;;2.03;1.05;;;22.40;46.40;;;;;;5071524;28;20463;-54
2021/05/16 02:12:04;;;;;;;3.03;1.10;;;22.30;47.50;;;;;;5072067;28;20036;-51
2021/05/16 02:14:33;;;;;;;2.78;0.82;;;22.40;44.80;;;;;;5072384;28;20102;-51
2021/05/16 02:17:02;;;;;;;3.50;0.90;;;22.40;46.00;;;;;;5071479;28;20040;-52
2021/05/16 02:19:30;;;;;;;4.30;1.17;;;22.40;47.20;;;;;;5072825;28;20021;-54
2021/05/16 02:21:58;;;;;;;2.03;0.80;;;22.60;46.50;;;;;;5072728;28;20028;-57
2021/05/16 02:24:25;;;;;;;3.15;0.90;;;22.60;45.50;;;;;;5072895;28;20390;-51
2021/05/16 02:26:58;;;;;;;3.20;1.15;;;22.60;44.10;;;;;;5073556;28;20050;-58
2021/05/16 02:29:29;;;;;;;2.70;1.20;;;22.70;45.60;;;;;;5072950;28;20032;-53
2021/05/16 02:31:57;;;;;;;2.13;0.82;;;22.80;46.30;;;;;;5073081;28;20033;-52
2021/05/16 02:34:24;;;;;;;4.50;0.75;;;22.90;44.20;;;;;;5073144;28;20054;-56
2021/05/16 02:36:52;;;;;;;2.95;0.65;;;22.90;42.40;;;;;;5072558;28;20036;-51
2021/05/16 02:39:19;;;;;;;3.33;0.88;;;22.80;46.40;;;;;;5072361;28;20020;-56
2021/05/16 02:41:47;;;;;;;2.38;0.57;;;22.90;46.10;;;;;;5058154;28;20036;-56
2021/05/16 02:44:15;;;;;;;1.65;0.73;;;22.90;45.90;;;;;;5073085;28;20412;-54
2021/05/16 02:46:42;;;;;;;2.63;0.75;;;23.00;45.00;;;;;;5065120;28;20036;-55
2021/05/16 02:49:10;;;;;;;2.97;1.05;;;23.00;41.20;;;;;;5072263;28;20028;-50
2021/05/16 02:51:38;;;;;;;3.47;1.02;;;23.10;41.60;;;;;;5067858;28;20029;-54
2021/05/16 02:54:06;;;;;;;3.22;0.82;;;23.30;41.20;;;;;;5073547;28;20099;-53
2021/05/16 02:56:33;;;;;;;2.70;1.20;;;23.20;44.80;;;;;;5069788;28;20025;-53
2021/05/16 02:59:01;;;;;;;3.22;1.30;;;23.40;41.70;;;;;;5068936;28;20526;-54
2021/05/16 03:01:29;;;;;;;2.83;1.17;;;23.30;44.60;;;;;;5061262;28;20040;-56
2021/05/16 03:03:56;;;;;;;2.85;1.70;;;23.20;43.90;;;;;;5069794;28;20398;-50
2021/05/16 03:06:24;;;;;;;4.63;2.40;;;23.00;42.70;;;;;;5069292;28;20031;-54
2021/05/16 03:08:51;;;;;;;6.03;1.48;;;22.80;40.60;;;;;;5068774;28;20895;-59
2021/05/16 03:11:18;;;;;;;12.13;2.72;;;22.60;40.30;;;;;;5065086;28;20044;-59
2021/05/16 03:13:46;;;;;;;6.18;5.30;;;22.70;40.80;;;;;;5071004;28;20021;-56
2021/05/16 03:16:13;;;;;;;5.80;2.72;;;22.60;42.30;;;;;;5071278;28;20099;-53
2021/05/16 03:18:40;;;;;;;6.28;5.13;;;22.50;39.90;;;;;;5074079;28;20028;-55
2021/05/16 03:21:08;;;;;;;7.25;4.70;;;22.50;40.30;;;;;;5071801;28;20111;-52
2021/05/16 03:23:35;;;;;;;9.98;5.60;;;22.50;42.80;;;;;;5071723;28;20029;-55
2021/05/16 03:26:03;;;;;;;5.75;4.15;;;22.50;41.90;;;;;;5071456;28;20039;-53
2021/05/16 03:28:31;;;;;;;4.88;3.47;;;22.60;38.00;;;;;;5071935;28;20528;-56
2021/05/16 03:30:59;;;;;;;6.50;5.30;;;22.70;37.10;;;;;;5071425;28;20086;-54
2021/05/16 03:33:28;;;;;;;8.63;5.30;;;22.80;39.30;;;;;;5071764;28;20475;-57
2021/05/16 03:35:55;;;;;;;8.50;6.30;;;22.80;38.10;;;;;;5071716;28;20447;-55
2021/05/16 03:38:23;;;;;;;5.97;4.00;;;22.80;39.30;;;;;;5071466;28;20115;-55
2021/05/16 03:40:50;;;;;;;8.57;4.82;;;22.90;38.80;;;;;;5071023;28;20024;-58
2021/05/16 03:43:20;;;;;;;10.48;4.30;;;23.00;38.20;;;;;;5070505;28;20024;-57
2021/05/16 03:45:47;;;;;;;11.65;9.20;;;23.00;36.60;;;;;;5071262;28;20099;-56
2021/05/16 03:48:15;;;;;;;10.48;8.75;;;23.10;41.10;;;;;;5071560;28;20486;-56
2021/05/16 03:50:42;;;;;;;7.63;6.35;;;23.10;42.30;;;;;;5072135;28;20024;-53
2021/05/16 03:53:10;;;;;;;6.50;4.57;;;22.90;40.80;;;;;;5071878;28;20031;-57
2021/05/16 03:55:37;;;;;;;6.30;5.13;;;22.90;37.90;;;;;;5071580;28;20418;-54
2021/05/16 03:58:05;;;;;;;6.32;5.20;;;22.90;38.60;;;;;;5071771;28;20158;-58
2021/05/16 04:00:32;;;;;;;5.85;5.25;;;23.10;38.80;;;;;;5071294;28;20040;-57
2021/05/16 04:02:59;;;;;;;9.05;3.58;;;23.20;36.20;;;;;;5072077;28;20024;-58
2021/05/16 04:05:27;;;;;;;7.75;3.95;;;23.20;37.00;;;;;;5071998;28;20025;-57
2021/05/16 04:07:54;;;;;;;7.32;3.17;;;23.30;38.80;;;;;;5071219;28;20039;-56
2021/05/16 04:10:22;;;;;;;6.32;2.60;;;23.30;37.60;;;;;;5071335;28;20041;-57
2021/05/16 04:12:49;;;;;;;2.80;1.95;;;23.40;36.10;;;;;;5071287;28;20036;-59
2021/05/16 04:15:17;;;;;;;15.43;4.10;;;23.40;36.00;;;;;;5070189;28;20048;-56
2021/05/16 04:17:44;;;;;;;9.68;3.38;;;23.40;33.70;;;;;;5071631;28;20052;-60
2021/05/16 04:20:12;;;;;;;4.85;2.90;;;23.50;36.60;;;;;;5071730;28;20020;-56
2021/05/16 04:22:39;;;;;;;9.13;2.25;;;23.50;35.50;;;;;;5070951;28;20471;-54
2021/05/16 04:25:07;;;;;;;3.92;2.20;;;23.60;36.90;;;;;;5071482;28;20462;-57
2021/05/16 04:27:35;;;;;;;14.45;2.95;;;23.50;37.90;;;;;;5071515;28;20515;-61
2021/05/16 04:30:03;;;;;;;4.10;1.98;;;23.50;37.40;;;;;;5071748;28;20028;-54
2021/05/16 04:32:31;;;;;;;7.05;2.40;;;23.50;38.00;;;;;;5070817;28;20108;-58
2021/05/16 04:34:58;;;;;;;5.35;1.27;;;23.50;37.90;;;;;;5071569;28;20029;-61
2021/05/16 04:37:26;;;;;;;3.55;1.67;;;23.60;35.80;;;;;;5071432;28;20086;-54
2021/05/16 04:39:53;;;;;;;9.80;1.80;;;23.70;38.90;;;;;;5070514;28;20020;-61
2021/05/16 04:42:21;;;;;;;10.18;1.83;;;23.70;37.10;;;;;;5071625;28;20023;-55
2021/05/16 04:44:48;;;;;;;8.82;2.35;;;23.70;37.00;;;;;;5069918;28;20032;-49
2021/05/16 04:47:16;;;;;;;9.13;1.80;;;23.70;39.10;;;;;;5070559;28;20481;-58
2021/05/16 04:49:43;;;;;;;5.22;1.17;;;23.70;38.30;;;;;;5071198;28;20021;-52
2021/05/16 04:52:11;;;;;;;15.90;1.80;;;23.80;34.50;;;;;;5071367;28;20055;-54
2021/05/16 04:54:38;;;;;;;6.68;1.45;;;23.80;33.90;;;;;;5070800;28;20442;-51
2021/05/16 04:57:06;;;;;;;16.63;1.80;;;23.90;34.80;;;;;;5070769;28;20174;-55
2021/05/16 04:59:33;;;;;;;14.57;1.88;;;23.90;36.70;;;;;;5069587;28;20020;-58
2021/05/16 05:02:00;;;;;;;15.27;2.13;;;23.90;35.80;;;;;;5071278;28;20032;-57
2021/05/16 05:04:29;;;;;;;13.30;2.13;;;23.90;36.20;;;;;;5070786;28;20370;-50
2021/05/16 05:06:57;;;;;;;11.35;1.30;;;23.90;38.40;;;;;;5074767;28;20028;-64
2021/05/16 05:09:25;;;;;;;17.42;2.15;;;24.00;39.90;;;;;;5074500;28;20027;-67
2021/05/16 05:11:52;;;;;;;5.22;1.02;;;24.30;35.10;;;;;;5074403;28;20383;-61
2021/05/16 05:14:20;;;;;;;4.18;1.50;;;24.70;33.20;;;;;;5074367;28;20024;-55
2021/05/16 05:16:47;;;;;;;30.25;2.42;;;24.80;32.70;;;;;;5072743;28;20053;-57
2021/05/16 05:19:14;;;;;;;19.23;1.67;;;25.00;35.20;;;;;;5074522;28;20024;-61
2021/05/16 05:21:42;;;;;;;14.63;2.13;;;25.20;35.10;;;;;;5072038;28;20036;-56
2021/05/16 05:24:10;;;;;;;11.60;1.15;;;25.30;35.10;;;;;;5056712;28;20013;-60
2021/05/16 05:26:37;;;;;;;18.55;1.63;;;25.20;30.40;;;;;;5075099;28;20115;-58
2021/05/16 05:29:05;;;;;;;27.23;2.47;;;25.30;33.90;;;;;;5073566;28;20467;-60
2021/05/16 05:31:33;;;;;;;24.17;1.80;;;25.40;35.60;;;;;;5073859;28;20531;-59
2021/05/16 05:34:00;;;;;;;15.88;1.45;;;25.50;35.70;;;;;;5074280;28;20467;-62
2021/05/16 05:36:29;;;;;;;9.98;1.40;;;25.50;36.50;;;;;;5073633;28;20032;-63
2021/05/16 05:38:58;;;;;;;10.05;0.88;;;25.60;35.40;;;;;;5072987;28;20028;-56
2021/05/16 05:41:25;;;;;;;12.85;1.42;;;25.60;34.40;;;;;;5072840;28;20418;-60
2021/05/16 05:43:52;;;;;;;9.45;1.20;;;25.60;32.50;;;;;;5069095;28;20040;-52
2021/05/16 05:46:20;;;;;;;19.65;1.65;;;25.50;33.20;;;;;;5073334;28;20032;-56
2021/05/16 05:48:47;;;;;;;10.98;1.42;;;25.30;34.10;;;;;;5073116;28;20064;-58
2021/05/16 05:51:18;;;;;;;8.27;1.83;;;25.10;32.70;;;;;;5072519;28;20035;-67
2021/05/16 05:53:45;;;;;;;15.43;1.88;;;24.90;34.10;;;;;;5073609;28;20024;-63
2021/05/16 05:56:13;;;;;;;14.77;1.45;;;24.60;35.50;;;;;;5073897;28;20043;-58
2021/05/16 05:58:40;;;;;;;16.58;2.33;;;24.40;37.20;;;;;;5072310;28;20194;-59
2021/05/16 06:01:08;;;;;;;16.50;1.23;;;24.30;38.90;;;;;;5073147;28;20060;-57
2021/05/16 06:03:35;;;;;;;29.45;3.25;;;24.10;40.00;;;;;;5072796;28;20438;-63
2021/05/16 06:06:03;;;;;;;20.77;2.30;;;23.80;38.50;;;;;;5072602;28;20111;-57
2021/05/16 06:08:30;;;;;;;25.05;2.58;;;23.50;37.10;;;;;;5072955;28;20024;-49
2021/05/16 06:10:58;;;;;;;9.93;1.48;;;23.30;39.90;;;;;;5073600;28;20040;-55
2021/05/16 06:13:25;;;;;;;16.88;1.58;;;22.90;36.40;;;;;;5064753;28;20394;-59
2021/05/16 06:15:54;;;;;;;9.55;1.25;;;22.60;37.40;;;;;;5069715;28;20025;-55
2021/05/16 06:18:23;;;;;;;7.95;1.40;;;22.50;39.30;;;;;;5070890;28;20033;-54
2021/05/16 06:20:51;;;;;;;6.45;1.35;;;22.30;40.40;;;;;;5070610;28;20132;-49
2021/05/16 06:23:19;;;;;;;11.73;1.35;;;22.20;41.00;;;;;;5069176;28;20036;-52
2021/05/16 06:25:48;;;;;;;6.75;1.52;;;22.10;41.60;;;;;;5069951;28;20429;-53
2021/05/16 06:28:16;;;;;;;12.57;1.45;;;21.90;42.00;;;;;;5069842;28;20043;-54
2021/05/16 06:30:43;;;;;;;8.00;1.20;;;21.80;43.30;;;;;;5069427;28;20049;-60
2021/05/16 06:33:11;;;;;;;4.68;1.00;;;21.60;43.30;;;;;;5067373;28;20028;-56
2021/05/16 06:35:38;;;;;;;7.30;1.70;;;21.50;43.20;;;;;;5066158;28;20432;-51
2021/05/16 06:38:05;;;;;;;5.20;1.17;;;21.50;43.60;;;;;;5068851;28;20046;-55
2021/05/16 06:40:34;;;;;;;3.72;1.13;;;21.40;44.00;;;;;;5069910;28;20032;-53
2021/05/16 06:43:04;;;;;;;10.90;1.30;;;21.30;44.70;;;;;;5066871;28;20044;-58
2021/05/16 06:45:31;;;;;;;10.77;1.20;;;21.20;44.50;;;;;;5069459;28;20465;-60
2021/05/16 06:47:59;;;;;;;4.07;1.20;;;21.10;44.90;;;;;;5069160;28;20401;-59
2021/05/16 06:50:26;;;;;;;5.45;1.10;;;21.10;45.10;;;;;;5070360;28;20029;-50
2021/05/16 06:52:53;;;;;;;7.93;1.77;;;21.00;45.10;;;;;;5067069;28;20024;-60
2021/05/16 06:55:22;;;;;;;4.10;1.20;;;21.00;43.80;;;;;;5069302;28;20039;-60
2021/05/16 06:57:49;;;;;;;2.70;1.50;;;20.90;44.70;;;;;;5066332;28;20029;-53
2021/05/16 07:00:17;;;;;;;8.02;1.83;;;20.90;43.90;;;;;;5069271;28;20033;-57
2021/05/16 07:02:45;;;;;;;7.55;1.33;;;20.80;45.50;;;;;;5066214;28;20128;-56
2021/05/16 07:05:12;;;;;;;3.05;1.27;;;20.70;45.50;;;;;;5069428;28;20341;-59
2021/05/16 07:07:40;;;;;;;8.25;1.02;;;20.70;45.10;;;;;;5068068;28;20116;-57
2021/05/16 07:10:08;;;;;;;3.50;1.23;;;20.70;44.90;;;;;;5072054;28;20040;-53
2021/05/16 07:12:36;;;;;;;9.77;1.17;;;20.60;45.60;;;;;;5066042;28;20483;-63
2021/05/16 07:15:03;;;;;;;6.03;1.15;;;20.60;46.60;;;;;;5067488;28;20483;-55
2021/05/16 07:17:31;;;;;;;3.08;1.42;;;20.50;46.80;;;;;;5069389;28;20037;-59
2021/05/16 07:19:58;;;;;;;7.43;1.25;;;20.40;45.80;;;;;;5069954;28;20028;-55
2021/05/16 07:22:25;;;;;;;9.32;1.75;;;20.40;47.10;;;;;;5072007;28;20115;-55
2021/05/16 07:24:53;;;;;;;4.25;1.50;;;20.20;46.20;;;;;;5071250;28;20506;-58
2021/05/16 07:27:20;;;;;;;6.18;1.55;;;20.20;45.70;;;;;;5069723;28;20110;-57
2021/05/16 07:29:50;;;;;;;6.68;1.33;;;20.10;47.10;;;;;;5070267;28;20037;-56
2021/05/16 07:32:18;;;;;;;2.28;1.40;;;20.00;47.20;;;;;;5070691;28;20097;-54
2021/05/16 07:34:45;;;;;;;5.72;2.25;;;20.00;47.10;;;;;;5071196;28;20348;-55
2021/05/16 07:37:12;;;;;;;3.35;1.20;;;19.90;47.00;;;;;;5071150;28;20025;-58
2021/05/16 07:39:40;;;;;;;6.35;1.98;;;19.80;47.50;;;;;;5070053;28;20021;-60
2021/05/16 07:42:07;;;;;;;3.67;1.80;;;19.80;47.90;;;;;;5069945;28;20123;-59
2021/05/16 07:44:35;;;;;;;3.80;2.33;;;19.70;47.90;;;;;;5069940;28;20020;-57
2021/05/16 07:47:02;;;;;;;7.45;1.77;;;19.70;48.10;;;;;;5068948;28;20029;-60
2021/05/16 07:49:30;;;;;;;5.03;2.05;;;19.60;48.10;;;;;;5070337;28;20020;-60
2021/05/16 07:51:57;;;;;;;4.47;1.73;;;19.50;48.10;;;;;;5069937;28;20127;-59
2021/05/16 07:54:24;;;;;;;2.65;1.90;;;19.50;48.60;;;;;;5071172;28;20103;-61
2021/05/16 07:56:51;;;;;;;4.07;1.85;;;19.40;49.40;;;;;;5072002;28;20546;-58
2021/05/16 07:59:19;;;;;;;4.97;2.75;;;19.40;48.90;;;;;;5070617;28;20417;-53
2021/05/16 08:01:46;;;;;;;6.90;2.35;;;19.40;48.90;;;;;;5072280;28;20064;-56
2021/05/16 08:04:13;;;;;;;3.50;2.15;;;19.30;49.00;;;;;;5072277;28;20352;-51
2021/05/16 08:06:41;;;;;;;6.07;2.97;;;19.30;49.30;;;;;;5071826;28;20020;-59
2021/05/16 08:09:08;;;;;;;5.43;2.35;;;19.30;49.30;;;;;;5071956;28;20508;-59
2021/05/16 08:11:35;;;;;;;4.82;2.10;;;19.20;49.10;;;;;;5072039;28;20049;-55
2021/05/16 08:14:03;;;;;;;3.83;2.30;;;19.10;49.60;;;;;;5071823;28;20021;-61
2021/05/16 08:16:33;;;;;;;7.22;1.60;;;19.10;49.80;;;;;;5072044;28;20140;-58
2021/05/16 08:19:00;;;;;;;4.80;2.03;;;19.00;49.80;;;;;;5071840;28;20025;-59
2021/05/16 08:21:28;;;;;;;7.45;3.95;;;19.00;49.90;;;;;;5072186;28;20029;-59
2021/05/16 08:23:55;;;;;;;3.95;2.78;;;19.00;49.90;;;;;;5072340;28;20032;-58
2021/05/16 08:26:23;;;;;;;5.13;1.90;;;18.90;50.00;;;;;;5071865;28;20438;-61
2021/05/16 08:28:50;;;;;;;3.90;2.00;;;18.90;49.20;;;;;;5071462;28;20060;-59
2021/05/16 08:31:17;;;;;;;4.50;2.20;;;18.90;50.20;;;;;;5070403;28;20495;-58
2021/05/16 08:33:45;;;;;;;3.42;1.90;;;18.80;50.20;;;;;;5071779;28;20132;-58
2021/05/16 08:36:15;;;;;;;10.80;1.85;;;18.70;49.90;;;;;;5071935;28;20059;-61
2021/05/16 08:38:42;;;;;;;7.95;2.35;;;18.70;49.90;;;;;;5072213;28;20017;-57
2021/05/16 08:41:13;;;;;;;4.57;1.85;;;18.60;50.30;;;;;;5075688;28;20027;-60
2021/05/16 08:43:41;;;;;;;4.05;2.08;;;18.60;50.60;;;;;;5076125;28;20471;-60
2021/05/16 08:46:09;;;;;;;3.28;2.15;;;18.60;50.50;;;;;;5075702;28;20032;-56
2021/05/16 08:48:39;;;;;;;3.08;2.28;;;18.50;50.40;;;;;;5075903;28;20029;-59
2021/05/16 08:51:06;;;;;;;4.55;2.08;;;18.50;50.10;;;;;;5075517;28;20515;-53
2021/05/16 08:53:37;;;;;;;2.65;1.80;;;18.50;50.70;;;;;;5074919;28;20471;-57
2021/05/16 08:56:06;;;;;;;4.30;2.00;;;18.50;50.10;;;;;;5075458;28;20029;-59
2021/05/16 08:58:38;;;;;;;4.22;1.73;;;18.40;50.60;;;;;;5075312;28;20119;-60
2021/05/16 09:01:45;;;;;;;3.97;2.50;;;18.40;51.00;;;;;;5075362;28;20024;-59
2021/05/16 09:04:30;;;;;;;2.95;2.10;;;18.40;50.30;;;;;;5031862;28;20033;-55
2021/05/16 09:06:58;;;;;;;3.38;2.03;;;18.30;50.40;;;;;;5075083;28;20044;-56
2021/05/16 09:09:38;;;;;;;3.67;1.95;;;18.30;50.60;;;;;;5075007;28;20021;-56
2021/05/16 09:12:15;;;;;;;4.15;2.30;;;18.30;51.30;;;;;;5075290;28;20052;-60
2021/05/16 09:14:53;;;;;;;3.42;2.33;;;18.20;51.10;;;;;;5075212;28;20020;-58
2021/05/16 09:17:32;;;;;;;3.83;2.30;;;18.20;51.40;;;;;;5074953;28;20036;-58
2021/05/16 09:20:08;;;;;;;3.08;2.03;;;18.20;51.20;;;;;;5075353;28;20481;-58
2021/05/16 09:22:42;;;;;;;4.03;2.25;;;18.10;51.70;;;;;;5074927;28;20454;-60
2021/05/16 09:25:17;;;;;;;3.45;1.90;;;18.10;51.80;;;;;;5074785;28;20021;-60
2021/05/16 09:27:53;;;;;;;2.45;1.88;;;18.10;51.80;;;;;;5074310;28;20031;-53
2021/05/16 09:30:22;;;;;;;4.60;2.05;;;18.10;52.30;;;;;;5069589;28;20139;-51
2021/05/16 09:32:56;;;;;;;3.17;2.17;;;18.10;52.10;;;;;;5062377;28;20104;-54
2021/05/16 09:35:47;;;;;;;3.15;2.05;;;18.00;52.00;;;;;;5066205;28;20386;-50
2021/05/16 09:38:21;;;;;;;2.95;2.10;;;18.00;52.00;;;;;;5070434;28;20040;-54
2021/05/16 09:40:59;;;;;;;2.95;1.98;;;18.00;52.50;;;;;;5070426;28;20162;-52
2021/05/16 09:43:32;;;;;;;3.28;1.90;;;18.00;52.70;;;;;;5070160;28;20035;-52
2021/05/16 09:46:08;;;;;;;5.18;2.40;;;18.00;52.40;;;;;;5070517;28;20066;-58
2021/05/16 09:48:47;;;;;;;1.85;1.70;;;17.90;52.70;;;;;;5070371;28;20039;-55
2021/05/16 09:51:19;;;;;;;3.92;2.22;;;17.90;52.60;;;;;;5069169;28;20107;-52
2021/05/16 09:53:59;;;;;;;2.60;1.77;;;17.90;52.60;;;;;;5069489;28;20035;-52
2021/05/16 09:56:34;;;;;;;4.55;1.88;;;17.90;52.20;;;;;;5067751;28;20132;-55
2021/05/16 09:59:09;;;;;;;2.75;1.85;;;17.90;52.60;;;;;;5066891;28;20060;-58
2021/05/16 10:01:37;;;;;;;2.65;1.83;;;17.90;52.60;;;;;;5068914;28;20138;-50
2021/05/16 10:04:06;;;;;;;2.53;1.92;;;17.90;52.50;;;;;;5066151;28;20048;-57
2021/05/16 10:06:39;;;;;;;2.58;1.73;;;17.90;52.40;;;;;;5072761;28;20032;-55
2021/05/16 10:09:07;;;;;;;2.53;1.90;;;17.90;52.60;;;;;;5072620;28;20436;-54
2021/05/16 10:11:38;;;;;;;2.30;1.60;;;17.90;52.60;;;;;;5072181;28;20102;-51
2021/05/16 10:14:21;;;;;;;3.22;1.88;;;17.90;52.70;;;;;;5067210;28;20138;-53
2021/05/16 10:16:50;;;;;;;4.70;2.22;;;17.90;52.70;;;;;;5072761;28;20086;-53
2021/05/16 10:19:21;;;;;;;2.40;1.80;;;17.90;52.60;;;;;;5072566;28;20345;-55
2021/05/16 10:22:17;;;;;;;2.45;1.80;;;17.90;52.90;;;;;;5072422;28;20020;-48
2021/05/16 10:24:49;;;;;;;2.33;1.35;;;17.80;52.60;;;;;;5071680;28;20020;-52
2021/05/16 10:27:17;;;;;;;2.00;1.45;;;17.90;52.70;;;;;;5072055;28;20024;-54
2021/05/16 10:29:53;;;;;;;2.28;1.63;;;17.90;52.90;;;;;;5072297;28;20027;-57
2021/05/16 10:32:47;;;;;;;1.70;1.33;;;17.90;52.80;;;;;;5066094;28;20028;-55
2021/05/16 10:35:16;;;;;;;4.65;1.90;;;17.90;52.80;;;;;;5069563;28;20107;-56
2021/05/16 10:37:55;;;;;;;2.92;1.80;;;17.80;52.80;;;;;;5071625;28;20423;-57
2021/05/16 10:40:24;;;;;;;2.50;1.73;;;17.80;52.70;;;;;;5072156;28;20360;-54
2021/05/16 10:42:55;;;;;;;4.00;1.80;;;17.80;53.00;;;;;;5066334;28;20031;-55
2021/05/16 10:45:30;;;;;;;1.83;1.40;;;17.80;53.10;;;;;;5071762;28;20029;-55
2021/05/16 10:48:05;;;;;;;5.38;1.77;;;17.80;53.00;;;;;;5072293;28;20077;-49
2021/05/16 10:50:45;;;;;;;4.53;1.55;;;17.80;52.80;;;;;;5072686;28;20146;-60
2021/05/16 10:53:17;;;;;;;3.03;1.55;;;17.80;53.10;;;;;;5063908;28;20040;-57
2021/05/16 10:55:50;;;;;;;2.10;1.25;;;17.80;53.20;;;;;;5071554;28;20356;-56
2021/05/16 10:58:35;;;;;;;5.10;1.52;;;17.80;53.20;;;;;;5071536;28;20032;-58
2021/05/16 11:01:11;;;;;;;2.60;2.00;;;17.70;53.10;;;;;;5068347;28;20487;-57
2021/05/16 11:03:47;;;;;;;2.30;1.27;;;17.70;53.00;;;;;;5061127;28;20020;-57
2021/05/16 11:06:19;;;;;;;2.15;1.40;;;17.80;53.40;;;;;;5071039;28;20059;-55
2021/05/16 11:08:47;;;;;;;1.92;1.63;;;17.70;53.40;;;;;;5071697;28;20032;-55
2021/05/16 11:11:29;;;;;;;2.13;1.17;;;17.70;53.50;;;;;;5071163;28;20045;-52
2021/05/16 11:13:57;;;;;;;2.47;1.83;;;17.70;53.40;;;;;;5064970;28;20119;-49
2021/05/16 11:16:24;;;;;;;2.55;1.30;;;17.60;53.60;;;;;;5070996;28;20436;-51
2021/05/16 11:18:52;;;;;;;2.72;1.45;;;17.70;53.40;;;;;;5071468;28;20029;-51
2021/05/16 11:21:21;;;;;;;2.78;1.40;;;17.70;53.60;;;;;;5071320;28;20109;-45
2021/05/16 11:23:50;;;;;;;3.70;1.50;;;17.70;53.50;;;;;;5066108;28;20024;-48
2021/05/16 11:26:23;;;;;;;1.92;1.40;;;17.60;53.60;;;;;;5071608;28;20487;-54
2021/05/16 11:28:57;;;;;;;2.75;1.58;;;17.60;53.50;;;;;;5071943;28;20047;-53
2021/05/16 11:31:27;;;;;;;1.63;1.20;;;17.70;53.80;;;;;;5073970;28;20104;-49
2021/05/16 11:34:01;;;;;;;5.72;1.55;;;17.60;53.70;;;;;;5066303;28;20115;-50
2021/05/16 11:36:33;;;;;;;2.42;1.38;;;17.60;53.60;;;;;;5069581;28;20111;-46
2021/05/16 11:39:05;;;;;;;2.17;1.30;;;17.60;53.60;;;;;;5067266;28;20064;-48
2021/05/16 11:41:40;;;;;;;2.17;1.55;;;17.60;53.60;;;;;;5071226;28;20075;-50
2021/05/16 11:44:09;;;;;;;3.03;1.55;;;17.60;53.50;;;;;;5065672;28;20039;-52
2021/05/16 11:46:40;;;;;;;2.90;1.48;;;17.60;53.70;;;;;;5070739;28;20474;-54
2021/05/16 11:49:12;;;;;;;2.22;1.50;;;17.50;53.60;;;;;;5071012;28;20056;-52
2021/05/16 11:51:40;;;;;;;2.20;1.30;;;17.60;53.80;;;;;;5071342;28;20084;-50
2021/05/16 11:54:11;;;;;;;2.80;1.23;;;17.50;53.70;;;;;;5063215;28;20040;-53
2021/05/16 11:56:40;;;;;;;2.95;1.48;;;17.50;53.80;;;;;;5066777;28;20442;-54
2021/05/16 11:59:08;;;;;;;4.07;1.20;;;17.50;53.80;;;;;;5066707;28;20020;-56
2021/05/16 12:01:38;;;;;;;1.77;1.00;;;17.50;53.80;;;;;;5070636;28;20081;-52
2021/05/16 12:04:14;;;;;;;1.83;1.25;;;17.50;53.90;;;;;;5065622;28;20028;-51
2021/05/16 12:06:47;;;;;;;2.47;1.13;;;17.50;53.90;;;;;;5070766;28;20435;-55
2021/05/16 12:09:17;;;;;;;1.45;1.35;;;17.50;54.00;;;;;;5067001;28;20099;-50
2021/05/16 12:11:47;;;;;;;3.33;1.30;;;17.50;54.00;;;;;;5070330;28;20059;-47
2021/05/16 12:14:18;;;;;;;3.88;0.95;;;17.50;53.80;;;;;;5064101;28;20420;-54
2021/05/16 12:17:02;;;;;;;2.90;1.20;;;17.50;53.80;;;;;;5070964;28;20482;-54
2021/05/16 12:19:32;;;;;;;3.55;1.65;;;17.40;53.80;;;;;;5068841;28;20024;-54
2021/05/16 12:22:13;;;;;;;2.35;1.20;;;17.40;53.70;;;;;;5071049;28;20051;-53
2021/05/16 12:24:48;;;;;;;3.20;1.23;;;17.40;53.80;;;;;;5068203;28;20036;-54
2021/05/16 12:27:20;;;;;;;1.35;0.95;;;17.40;54.00;;;;;;5071241;28;20033;-51
2021/05/16 12:29:48;;;;;;;1.75;1.20;;;17.40;53.90;;;;;;5071644;28;20069;-53
2021/05/16 12:32:24;;;;;;;5.85;1.73;;;17.30;53.90;;;;;;5070458;28;20032;-54
2021/05/16 12:34:52;;;;;;;17.38;2.28;;;17.20;54.00;;;;;;5071455;28;20103;-56
2021/05/16 12:37:21;;;;;;;9.50;1.73;;;17.20;54.20;;;;;;5071435;28;20483;-56
2021/05/16 12:39:51;;;;;;;5.85;1.80;;;17.20;54.20;;;;;;5071532;28;20523;-57
2021/05/16 12:42:34;;;;;;;4.20;1.08;;;17.20;54.40;;;;;;5071826;28;20036;-58
2021/05/16 12:45:20;;;;;;;;;;;17.20;54.40;;;;;;5072300;28;20021;-57
2021/05/16 12:48:07;;;;;;;8.95;1.45;;;17.20;54.60;;;;;;5071246;28;20349;-53
2021/05/16 12:50:43;;;;;;;6.28;1.42;;;17.20;54.60;;;;;;5071622;28;20028;-53
2021/05/16 12:53:32;;;;;;;3.75;1.58;;;17.10;54.60;;;;;;5070910;28;20111;-55
2021/05/16 12:56:16;;;;;;;4.95;1.52;;;17.10;54.70;;;;;;5070603;28;20040;-53
2021/05/16 13:01:38;;;;;;;1.67;0.90;;;17.10;54.80;;;;;;5071886;28;20029;-48